Time;durP1;ratioP1;P1;durP2;ratioP2;P2;SDS_P1;SDS_P2;PMS_P1;PMS_P2;Temp;Humidity;BMP_temperature;BMP_pressure;BME280_temperature;BME280_humidity;BME280_pressure;Samples;Min_cycle;Max_cycle;Signal;HPM_P1;HPM_P2
2023/05/19 00:00:36;;;;;;;10.27;4.05;;;11.30;99.90;;;;;;4997837;28;20038;-73
2023/05/19 00:03:03;;;;;;;10.10;3.70;;;11.30;99.90;;;;;;4997465;28;20061;-73
2023/05/19 00:05:29;;;;;;;13.45;3.63;;;11.30;99.90;;;;;;4997928;28;20034;-73
2023/05/19 00:08:00;;;;;;;9.23;3.80;;;11.30;99.90;;;;;;4997623;28;20108;-73
2023/05/19 00:10:30;;;;;;;13.10;3.83;;;11.20;99.90;;;;;;4964283;28;20051;-73
2023/05/19 00:12:57;;;;;;;13.55;4.47;;;11.20;99.90;;;;;;4997553;28;20042;-73
2023/05/19 00:15:23;;;;;;;14.10;3.97;;;11.20;99.90;;;;;;4980554;28;20042;-74
2023/05/19 00:17:49;;;;;;;12.63;3.78;;;11.20;99.90;;;;;;4997653;28;20387;-73
2023/05/19 00:20:14;;;;;;;8.48;3.47;;;11.10;99.90;;;;;;4980407;28;20351;-73
2023/05/19 00:22:42;;;;;;;8.70;4.03;;;11.10;99.90;;;;;;4979880;28;20474;-73
2023/05/19 00:25:09;;;;;;;10.93;3.83;;;11.10;99.90;;;;;;4979592;28;20462;-73
2023/05/19 00:27:35;;;;;;;10.68;4.03;;;11.10;99.90;;;;;;4980281;28;20050;-73
2023/05/19 00:30:00;;;;;;;12.63;4.15;;;11.10;99.90;;;;;;4979984;28;20053;-74
2023/05/19 00:32:26;;;;;;;14.68;4.50;;;11.00;99.90;;;;;;4964107;28;20053;-73
2023/05/19 00:34:51;;;;;;;11.45;4.28;;;11.00;99.90;;;;;;4997382;28;20069;-73
2023/05/19 00:37:17;;;;;;;12.93;4.07;;;11.10;99.90;;;;;;4997115;28;20348;-73
2023/05/19 00:39:43;;;;;;;10.63;4.10;;;11.10;99.90;;;;;;4980007;28;20340;-73
2023/05/19 00:42:09;;;;;;;12.60;4.10;;;11.10;99.90;;;;;;4979785;28;20053;-73
2023/05/19 00:44:39;;;;;;;13.27;4.15;;;11.00;99.90;;;;;;4997357;28;20045;-73
2023/05/19 00:47:05;;;;;;;9.52;3.80;;;11.00;99.90;;;;;;4979938;28;20399;-73
2023/05/19 00:49:31;;;;;;;14.43;3.63;;;10.90;99.90;;;;;;4996936;28;20446;-73
2023/05/19 00:51:58;;;;;;;10.93;3.50;;;10.90;99.90;;;;;;4996829;28;20042;-73
2023/05/19 00:54:24;;;;;;;11.32;4.18;;;10.90;99.90;;;;;;4996564;28;20126;-73
2023/05/19 00:56:50;;;;;;;8.75;3.58;;;10.90;99.90;;;;;;4997229;28;20101;-72
2023/05/19 00:59:16;;;;;;;12.15;4.43;;;10.80;99.90;;;;;;4996703;28;20038;-73
2023/05/19 01:01:42;;;;;;;7.88;3.92;;;10.80;99.90;;;;;;4979782;28;20065;-72
2023/05/19 01:04:08;;;;;;;9.52;3.85;;;10.80;99.90;;;;;;4996934;28;20051;-72
2023/05/19 01:06:38;;;;;;;8.27;3.80;;;10.80;99.90;;;;;;4997104;28;20053;-73
2023/05/19 01:09:04;;;;;;;9.48;3.50;;;10.90;99.90;;;;;;4996918;28;20428;-73
2023/05/19 01:11:29;;;;;;;8.63;3.50;;;10.80;99.90;;;;;;4996795;28;20088;-73
2023/05/19 01:13:55;;;;;;;7.55;3.15;;;10.80;99.90;;;;;;4963433;28;20046;-73
2023/05/19 01:16:34;;;;;;;11.70;3.88;;;10.80;99.90;;;;;;4996913;28;20045;-73
2023/05/19 01:19:11;;;;;;;9.45;3.47;;;10.70;99.90;;;;;;4979964;28;20053;-73
2023/05/19 01:21:59;;;;;;;10.07;3.45;;;10.70;99.90;;;;;;4979579;28;20089;-73
2023/05/19 01:24:47;;;;;;;8.55;3.92;;;10.70;99.90;;;;;;4996225;28;20439;-73
2023/05/19 01:27:25;;;;;;;7.13;3.42;;;10.60;99.90;;;;;;4996720;28;20055;-72
2023/05/19 01:29:50;;;;;;;9.82;3.75;;;10.60;99.90;;;;;;4979415;28;20042;-73
2023/05/19 01:32:19;;;;;;;7.50;3.70;;;10.60;99.90;;;;;;4996765;28;20325;-73
2023/05/19 01:34:47;;;;;;;9.77;3.60;;;10.70;99.90;;;;;;4996592;28;20043;-73
2023/05/19 01:37:15;;;;;;;9.73;3.78;;;10.70;99.90;;;;;;5000407;28;20482;-72
2023/05/19 01:39:43;;;;;;;8.93;3.20;;;10.60;99.90;;;;;;5000501;28;20371;-72
2023/05/19 01:42:09;;;;;;;9.45;3.55;;;10.50;99.90;;;;;;4983058;28;20129;-73
2023/05/19 01:44:36;;;;;;;7.82;3.30;;;10.50;99.90;;;;;;4983155;28;20046;-73
2023/05/19 01:47:02;;;;;;;8.77;3.35;;;10.40;99.90;;;;;;5000328;28;20531;-73
2023/05/19 01:49:28;;;;;;;10.38;3.58;;;10.40;99.90;;;;;;4983112;28;20053;-73
2023/05/19 01:51:55;;;;;;;8.73;3.53;;;10.30;99.90;;;;;;5000008;28;20042;-73
2023/05/19 01:54:22;;;;;;;7.22;2.70;;;10.30;99.90;;;;;;4982848;28;20097;-73
2023/05/19 01:57:39;;;;;;;7.28;3.20;;;10.30;99.90;;;;;;4982788;28;20050;-73
2023/05/19 02:00:30;;;;;;;10.65;3.42;;;10.30;99.90;;;;;;4956902;28;20042;-73
2023/05/19 02:03:14;;;;;;;9.68;3.63;;;10.30;99.90;;;;;;4999984;28;20049;-73
2023/05/19 02:06:28;;;;;;;5.35;2.75;;;10.30;99.90;;;;;;4999879;28;20065;-73
2023/05/19 02:09:02;;;;;;;7.05;2.92;;;10.30;99.90;;;;;;4975603;28;20049;-73
2023/05/19 02:11:42;;;;;;;9.77;3.85;;;10.30;99.90;;;;;;4999747;28;20090;-73
2023/05/19 02:14:16;;;;;;;7.63;2.70;;;10.30;99.90;;;;;;4999861;28;20046;-73
2023/05/19 02:16:46;;;;;;;8.52;2.47;;;10.20;99.90;;;;;;4999884;28;20096;-73
2023/05/19 02:19:27;;;;;;;8.98;2.70;;;10.20;99.90;;;;;;4982623;28;20369;-73
2023/05/19 02:21:53;;;;;;;13.80;3.05;;;10.30;99.90;;;;;;4999744;28;20333;-73
2023/05/19 02:24:21;;;;;;;6.20;2.60;;;10.30;99.90;;;;;;4999319;28;20046;-73
2023/05/19 02:26:51;;;;;;;8.20;2.50;;;10.30;99.90;;;;;;4999623;28;20038;-72
2023/05/19 02:29:17;;;;;;;10.82;2.83;;;10.40;99.90;;;;;;4999763;28;20038;-73
2023/05/19 02:31:43;;;;;;;8.13;2.85;;;10.30;99.90;;;;;;4999228;28;20458;-73
2023/05/19 02:34:08;;;;;;;8.18;2.72;;;10.30;99.90;;;;;;4999552;28;20034;-73
2023/05/19 02:36:38;;;;;;;6.63;2.50;;;10.20;99.90;;;;;;4999303;28;20373;-73
2023/05/19 02:39:03;;;;;;;8.32;2.50;;;10.20;99.90;;;;;;4982324;28;20073;-73
2023/05/19 02:41:30;;;;;;;8.77;2.67;;;10.10;99.90;;;;;;4999416;28;20388;-73
2023/05/19 02:43:56;;;;;;;8.23;2.80;;;10.10;99.90;;;;;;4999150;28;20046;-72
2023/05/19 02:46:23;;;;;;;7.65;2.70;;;10.10;99.90;;;;;;4998960;28;20073;-72
2023/05/19 02:48:49;;;;;;;7.43;2.60;;;10.10;99.90;;;;;;4998975;28;20117;-72
2023/05/19 02:51:15;;;;;;;7.35;2.78;;;10.10;99.90;;;;;;4999143;28;20444;-72
2023/05/19 02:53:41;;;;;;;11.77;2.63;;;10.10;99.90;;;;;;4998825;28;20054;-72
2023/05/19 02:56:07;;;;;;;12.35;3.08;;;10.10;99.90;;;;;;4998531;28;20050;-72
2023/05/19 02:58:32;;;;;;;9.15;2.92;;;10.10;99.90;;;;;;4965611;28;20042;-72
2023/05/19 03:00:58;;;;;;;6.45;2.70;;;10.10;99.90;;;;;;4981642;28;20100;-73
2023/05/19 03:03:24;;;;;;;11.10;2.60;;;10.10;99.90;;;;;;4998904;28;20053;-73
2023/05/19 03:05:50;;;;;;;6.95;2.67;;;10.10;99.90;;;;;;4998764;28;20121;-73
2023/05/19 03:08:16;;;;;;;8.23;3.10;;;10.00;99.90;;;;;;4981750;28;20085;-73
2023/05/19 03:10:41;;;;;;;7.28;2.60;;;10.00;99.90;;;;;;4998430;28;20047;-73
2023/05/19 03:13:07;;;;;;;12.63;2.30;;;10.00;99.90;;;;;;4998970;28;20462;-73
2023/05/19 03:15:33;;;;;;;10.20;2.38;;;10.10;99.90;;;;;;4998704;28;20408;-73
2023/05/19 03:17:58;;;;;;;8.52;2.63;;;10.10;99.90;;;;;;4998789;28;20034;-73
2023/05/19 03:20:24;;;;;;;10.52;2.80;;;10.00;99.90;;;;;;4998584;28;20290;-72
2023/05/19 03:22:50;;;;;;;8.32;2.17;;;10.00;99.90;;;;;;4998353;28;20041;-73
2023/05/19 03:25:16;;;;;;;10.27;2.80;;;10.00;99.90;;;;;;4980725;28;20042;-73
2023/05/19 03:27:42;;;;;;;11.05;3.17;;;10.00;99.90;;;;;;4998508;28;20332;-73
2023/05/19 03:30:08;;;;;;;13.10;2.58;;;10.10;99.90;;;;;;4981274;28;20043;-73
2023/05/19 03:32:36;;;;;;;7.32;2.60;;;10.20;99.90;;;;;;4980982;28;20083;-73
2023/05/19 03:35:04;;;;;;;11.85;3.03;;;10.10;99.90;;;;;;4998489;28;20042;-72
2023/05/19 03:37:29;;;;;;;13.75;3.03;;;10.10;99.90;;;;;;4981111;28;20038;-73
2023/05/19 03:39:56;;;;;;;9.27;2.75;;;10.10;99.90;;;;;;4998306;28;20419;-73
2023/05/19 03:42:22;;;;;;;10.77;2.70;;;10.10;99.90;;;;;;4980753;28;20055;-73
2023/05/19 03:44:47;;;;;;;8.98;2.72;;;10.20;99.90;;;;;;4998235;28;20053;-73
2023/05/19 03:47:13;;;;;;;12.63;3.10;;;10.20;99.90;;;;;;4998251;28;20050;-73
2023/05/19 03:49:39;;;;;;;9.90;3.92;;;10.20;99.90;;;;;;4980794;28;20419;-72
2023/05/19 03:52:04;;;;;;;9.70;2.60;;;10.30;99.90;;;;;;4997932;28;20152;-72
2023/05/19 03:54:30;;;;;;;9.38;2.63;;;10.20;99.90;;;;;;4980368;28;20050;-73
2023/05/19 03:56:56;;;;;;;9.20;2.78;;;10.20;99.90;;;;;;4998121;28;20045;-73
2023/05/19 03:59:22;;;;;;;11.45;2.97;;;10.20;99.90;;;;;;4997191;28;20113;-73
2023/05/19 04:01:48;;;;;;;10.95;3.15;;;10.20;99.90;;;;;;4997578;28;20054;-73
2023/05/19 04:04:14;;;;;;;6.68;2.47;;;10.20;99.90;;;;;;4980685;28;20035;-73
2023/05/19 04:06:39;;;;;;;9.73;2.72;;;10.20;99.90;;;;;;4997627;28;20046;-73
2023/05/19 04:09:11;;;;;;;6.13;2.63;;;10.20;99.90;;;;;;4980577;28;20058;-73
2023/05/19 04:11:38;;;;;;;7.28;2.45;;;10.20;99.90;;;;;;4997595;28;20046;-73
2023/05/19 04:14:04;;;;;;;6.57;2.67;;;10.10;99.90;;;;;;4997793;28;20074;-73
2023/05/19 04:16:30;;;;;;;7.05;2.80;;;10.20;99.90;;;;;;4964399;28;20081;-73
2023/05/19 04:18:55;;;;;;;9.38;2.60;;;10.20;99.90;;;;;;4980531;28;20121;-73
2023/05/19 04:21:21;;;;;;;9.57;2.90;;;10.20;99.90;;;;;;4997364;28;20336;-73
2023/05/19 04:23:47;;;;;;;9.68;2.92;;;10.10;99.90;;;;;;4980318;28;20046;-73
2023/05/19 04:26:13;;;;;;;8.60;3.03;;;10.20;99.90;;;;;;4996988;28;20042;-73
2023/05/19 04:28:41;;;;;;;11.88;3.40;;;10.30;99.90;;;;;;4997403;28;20046;-73
2023/05/19 04:31:11;;;;;;;14.25;3.30;;;10.50;99.90;;;;;;4997393;28;20042;-72
2023/05/19 04:33:38;;;;;;;7.93;3.15;;;10.60;99.90;;;;;;4963834;28;20048;-73
2023/05/19 04:36:09;;;;;;;11.63;3.20;;;10.60;99.90;;;;;;4997426;28;20048;-73
2023/05/19 04:38:35;;;;;;;9.38;3.50;;;10.60;99.90;;;;;;4980178;28;20165;-73
2023/05/19 04:41:10;;;;;;;8.02;3.50;;;10.70;99.90;;;;;;4997476;28;20038;-73
2023/05/19 04:43:40;;;;;;;10.82;3.40;;;10.80;99.90;;;;;;4980232;28;20128;-72
2023/05/19 04:46:10;;;;;;;10.88;4.13;;;10.80;99.90;;;;;;4979984;28;20087;-73
2023/05/19 04:48:36;;;;;;;15.05;3.95;;;10.90;99.90;;;;;;4997007;28;20045;-74
2023/05/19 04:51:02;;;;;;;6.93;3.20;;;11.10;99.90;;;;;;4997036;28;20086;-73
2023/05/19 04:53:28;;;;;;;10.45;3.60;;;11.10;99.90;;;;;;4979622;28;20133;-73
2023/05/19 04:55:55;;;;;;;10.77;3.88;;;11.30;99.90;;;;;;4996586;28;20042;-73
2023/05/19 04:58:24;;;;;;;14.43;4.95;;;11.40;99.90;;;;;;4979656;28;20498;-73
2023/05/19 05:00:51;;;;;;;9.25;3.92;;;11.50;99.90;;;;;;4996908;28;20073;-73
2023/05/19 05:03:17;;;;;;;15.77;4.57;;;11.70;99.90;;;;;;4996982;28;20390;-73
2023/05/19 05:05:43;;;;;;;10.98;3.95;;;11.90;99.90;;;;;;4979950;28;20038;-73
2023/05/19 05:08:10;;;;;;;9.07;4.00;;;12.00;99.90;;;;;;4996749;28;20420;-73
2023/05/19 05:10:35;;;;;;;14.63;4.47;;;12.10;99.90;;;;;;5000119;28;20050;-73
2023/05/19 05:13:01;;;;;;;18.75;5.68;;;12.20;99.90;;;;;;5000673;28;20042;-73
2023/05/19 05:15:28;;;;;;;16.27;5.18;;;12.20;99.90;;;;;;5000812;28;20125;-73
2023/05/19 05:17:54;;;;;;;13.95;5.00;;;12.20;99.90;;;;;;4983752;28;20034;-73
2023/05/19 05:20:21;;;;;;;18.92;6.10;;;12.20;99.90;;;;;;4983365;28;20042;-73
2023/05/19 05:22:47;;;;;;;19.98;6.43;;;12.30;99.90;;;;;;4983861;28;20050;-72
2023/05/19 05:25:13;;;;;;;16.60;6.57;;;12.40;99.90;;;;;;4982937;28;20046;-73
2023/05/19 05:27:39;;;;;;;16.50;6.70;;;12.30;99.90;;;;;;4983532;28;20340;-73
2023/05/19 05:30:05;;;;;;;15.00;6.85;;;12.40;99.90;;;;;;5000373;28;20050;-73
2023/05/19 05:32:31;;;;;;;19.33;7.50;;;12.50;99.90;;;;;;5000740;28;20439;-73
2023/05/19 05:34:57;;;;;;;22.50;7.22;;;12.50;99.90;;;;;;5000556;28;20077;-73
2023/05/19 05:37:23;;;;;;;16.58;6.43;;;12.60;99.90;;;;;;5000632;28;20116;-73
2023/05/19 05:39:49;;;;;;;15.27;6.20;;;12.50;99.90;;;;;;5000495;28;20070;-73
2023/05/19 05:42:15;;;;;;;18.48;6.25;;;12.50;99.90;;;;;;5000527;28;20053;-73
2023/05/19 05:44:40;;;;;;;17.17;7.05;;;12.60;99.90;;;;;;4983312;28;20034;-73
2023/05/19 05:47:07;;;;;;;12.65;6.20;;;12.70;99.90;;;;;;5000466;28;20045;-73
2023/05/19 05:49:36;;;;;;;13.57;5.93;;;12.80;99.90;;;;;;5000277;28;20042;-73
2023/05/19 05:52:04;;;;;;;14.57;6.35;;;12.90;99.90;;;;;;5000006;28;20049;-74
2023/05/19 05:54:30;;;;;;;12.20;5.68;;;13.00;99.90;;;;;;5000299;28;20117;-73
2023/05/19 05:56:56;;;;;;;16.10;5.70;;;13.00;99.90;;;;;;4982807;28;20043;-73
2023/05/19 05:59:21;;;;;;;16.00;6.07;;;13.10;99.90;;;;;;5000340;28;20050;-73
2023/05/19 06:01:47;;;;;;;12.77;6.25;;;13.10;99.90;;;;;;4999859;28;20070;-73
2023/05/19 06:04:13;;;;;;;11.75;6.78;;;13.20;99.90;;;;;;5000261;28;20412;-73
2023/05/19 06:06:39;;;;;;;14.77;6.50;;;13.30;99.90;;;;;;5000029;28;20042;-73
2023/05/19 06:09:04;;;;;;;15.93;6.35;;;13.40;99.90;;;;;;4999791;28;20593;-73
2023/05/19 06:11:31;;;;;;;14.18;6.47;;;13.60;99.90;;;;;;4999812;28;20048;-73
2023/05/19 06:13:57;;;;;;;16.67;6.85;;;13.70;99.90;;;;;;4999669;28;20051;-73
2023/05/19 06:16:22;;;;;;;17.08;5.88;;;13.70;99.90;;;;;;4999583;28;20118;-74
2023/05/19 06:18:48;;;;;;;19.70;6.80;;;13.80;99.90;;;;;;4982679;28;20042;-73
2023/05/19 06:21:14;;;;;;;17.92;6.78;;;13.70;99.90;;;;;;4998966;28;20420;-73
2023/05/19 06:23:40;;;;;;;13.52;6.60;;;13.80;99.90;;;;;;4982507;28;20049;-73
2023/05/19 06:26:06;;;;;;;14.32;7.32;;;13.90;99.90;;;;;;4994413;28;20046;-73
2023/05/19 06:28:32;;;;;;;22.02;7.10;;;13.90;99.90;;;;;;4971237;28;20046;-73
2023/05/19 06:30:58;;;;;;;13.48;6.68;;;14.00;99.90;;;;;;4987989;28;20057;-73
2023/05/19 06:33:24;;;;;;;13.90;6.40;;;14.00;99.90;;;;;;4988305;28;20046;-73
2023/05/19 06:35:50;;;;;;;14.70;6.57;;;14.10;99.90;;;;;;4971201;28;20090;-75
2023/05/19 06:38:16;;;;;;;17.08;6.60;;;14.10;99.90;;;;;;4973612;28;20412;-70
2023/05/19 06:40:42;;;;;;;17.23;6.68;;;14.20;99.90;;;;;;4981964;28;20121;-68
2023/05/19 06:43:08;;;;;;;15.55;6.35;;;14.10;99.90;;;;;;4987838;28;20336;-68
2023/05/19 06:45:33;;;;;;;15.93;5.97;;;14.10;99.90;;;;;;4979657;28;20042;-68
2023/05/19 06:48:00;;;;;;;16.88;5.90;;;14.10;99.90;;;;;;4979719;28;20490;-69
2023/05/19 06:50:25;;;;;;;11.95;5.13;;;14.10;99.90;;;;;;4979773;28;20042;-67
2023/05/19 06:52:51;;;;;;;14.60;5.18;;;14.20;99.90;;;;;;4979541;28;20401;-67
2023/05/19 06:55:17;;;;;;;14.23;4.90;;;14.30;99.90;;;;;;4979348;28;20047;-67
2023/05/19 06:57:43;;;;;;;12.10;4.97;;;14.40;99.90;;;;;;4979452;28;20328;-68
2023/05/19 07:00:11;;;;;;;17.58;5.45;;;14.30;99.90;;;;;;4986257;28;20125;-68
2023/05/19 07:02:39;;;;;;;12.40;4.15;;;14.40;99.90;;;;;;4996841;28;20046;-69
2023/05/19 07:05:06;;;;;;;13.40;4.43;;;14.50;99.90;;;;;;4997936;28;20049;-67
2023/05/19 07:07:32;;;;;;;12.43;4.28;;;14.50;99.90;;;;;;4998715;28;20053;-67
2023/05/19 07:09:58;;;;;;;9.55;4.05;;;14.60;99.90;;;;;;4998681;28;20043;-68
2023/05/19 07:12:25;;;;;;;11.63;4.47;;;14.60;99.90;;;;;;4998673;28;20041;-67
2023/05/19 07:14:51;;;;;;;16.90;3.92;;;14.70;99.90;;;;;;4998749;28;20332;-65
2023/05/19 07:17:17;;;;;;;12.77;3.65;;;14.70;99.90;;;;;;4998677;28;20042;-66
2023/05/19 07:19:42;;;;;;;14.30;3.80;;;14.80;99.90;;;;;;4998452;28;20092;-66
2023/05/19 07:22:08;;;;;;;8.88;3.53;;;14.90;99.90;;;;;;4998710;28;20042;-66
2023/05/19 07:24:34;;;;;;;9.77;3.75;;;15.00;99.90;;;;;;4998717;28;20428;-69
2023/05/19 07:27:00;;;;;;;10.50;3.47;;;15.10;99.90;;;;;;4986295;28;20387;-69
2023/05/19 07:29:25;;;;;;;14.82;3.90;;;15.10;99.90;;;;;;4998125;28;20085;-66
2023/05/19 07:31:53;;;;;;;11.52;3.65;;;15.30;99.90;;;;;;4998431;28;20054;-67
2023/05/19 07:34:20;;;;;;;9.50;3.53;;;15.40;99.90;;;;;;4997395;28;20412;-67
2023/05/19 07:36:46;;;;;;;5.72;2.75;;;15.50;99.90;;;;;;4998245;28;20335;-66
2023/05/19 07:39:12;;;;;;;9.43;2.70;;;15.40;99.90;;;;;;4998125;28;20031;-66
2023/05/19 07:41:38;;;;;;;10.02;2.85;;;15.30;99.90;;;;;;4998257;28;20053;-66
2023/05/19 07:44:06;;;;;;;8.23;3.00;;;15.50;99.90;;;;;;4998260;28;20125;-66
2023/05/19 07:46:33;;;;;;;10.23;2.50;;;15.60;99.90;;;;;;4997986;28;20090;-66
2023/05/19 07:48:59;;;;;;;9.85;2.58;;;15.60;99.90;;;;;;4998218;28;20073;-67
2023/05/19 07:51:24;;;;;;;8.43;2.60;;;15.80;99.90;;;;;;4998731;28;20399;-66
2023/05/19 07:53:50;;;;;;;8.80;2.55;;;15.60;99.90;;;;;;4997832;28;20133;-66
2023/05/19 07:56:16;;;;;;;7.90;2.40;;;15.60;99.90;;;;;;4980304;28;20093;-67
2023/05/19 07:58:42;;;;;;;10.93;2.75;;;15.70;99.90;;;;;;4997733;28;20082;-67
2023/05/19 08:01:07;;;;;;;16.60;2.60;;;15.80;99.90;;;;;;4980838;28;20046;-66
2023/05/19 08:03:33;;;;;;;12.65;2.58;;;16.00;99.90;;;;;;4997751;28;20504;-66
2023/05/19 08:05:59;;;;;;;9.48;2.25;;;16.10;99.90;;;;;;4997855;28;20058;-66
2023/05/19 08:08:25;;;;;;;5.80;2.30;;;16.30;99.90;;;;;;4997678;28;20046;-66
2023/05/19 08:10:51;;;;;;;6.93;2.20;;;16.40;99.90;;;;;;4997681;28;20082;-68
2023/05/19 08:13:16;;;;;;;10.50;2.88;;;16.40;99.90;;;;;;4997784;28;20160;-66
2023/05/19 08:15:42;;;;;;;11.48;2.65;;;16.50;99.90;;;;;;4997796;28;20030;-66
2023/05/19 08:18:08;;;;;;;8.70;2.85;;;16.30;99.90;;;;;;4997763;28;20424;-66
2023/05/19 08:20:34;;;;;;;7.30;2.13;;;16.40;99.90;;;;;;4980470;28;20046;-66
2023/05/19 08:22:59;;;;;;;12.10;2.88;;;16.50;99.90;;;;;;4997448;28;20456;-66
2023/05/19 08:25:25;;;;;;;8.05;2.50;;;16.70;99.90;;;;;;4996916;28;20053;-66
2023/05/19 08:27:51;;;;;;;7.20;2.25;;;16.80;99.90;;;;;;4997525;28;20042;-66
2023/05/19 08:30:16;;;;;;;5.97;2.08;;;16.90;99.90;;;;;;4997150;28;20336;-66
2023/05/19 08:32:42;;;;;;;5.60;2.05;;;16.90;99.90;;;;;;4997567;28;20144;-67
2023/05/19 08:35:08;;;;;;;9.07;1.85;;;17.00;99.90;;;;;;4997332;28;20038;-66
2023/05/19 08:37:36;;;;;;;12.43;2.22;;;17.20;99.90;;;;;;4997190;28;20034;-66
2023/05/19 08:40:07;;;;;;;9.48;2.10;;;17.20;99.90;;;;;;4997359;28;20043;-67
2023/05/19 08:42:33;;;;;;;6.00;1.88;;;17.40;99.90;;;;;;4997408;28;20109;-66
2023/05/19 08:45:00;;;;;;;8.15;2.20;;;17.60;99.90;;;;;;4979766;28;20109;-66
2023/05/19 08:47:27;;;;;;;12.88;2.22;;;17.70;99.90;;;;;;4980050;28;20069;-66
2023/05/19 08:50:02;;;;;;;11.50;2.78;;;17.70;99.90;;;;;;4980156;28;20386;-66
2023/05/19 08:53:01;;;;;;;11.50;2.60;;;17.60;99.90;;;;;;4996895;28;20104;-66
2023/05/19 08:55:41;;;;;;;7.32;2.00;;;17.40;99.90;;;;;;4996501;28;20049;-67
2023/05/19 08:58:07;;;;;;;7.03;2.38;;;17.50;99.90;;;;;;4997200;28;20108;-66
2023/05/19 09:00:33;;;;;;;9.27;2.40;;;17.50;99.90;;;;;;4997037;28;20042;-67
2023/05/19 09:03:00;;;;;;;5.95;1.90;;;17.50;99.90;;;;;;4997244;28;20134;-66
2023/05/19 09:05:26;;;;;;;8.27;1.88;;;17.70;99.90;;;;;;4996963;28;20387;-66
2023/05/19 09:07:51;;;;;;;11.75;2.25;;;17.60;99.90;;;;;;4997262;28;20042;-66
2023/05/19 09:10:17;;;;;;;6.90;1.83;;;17.60;99.90;;;;;;4996879;28;20035;-66
2023/05/19 09:12:44;;;;;;;6.80;1.90;;;17.80;99.90;;;;;;4979949;28;20132;-66
2023/05/19 09:15:11;;;;;;;6.65;2.00;;;17.60;99.90;;;;;;4997164;28;20119;-66
2023/05/19 09:17:38;;;;;;;6.15;2.28;;;17.80;99.90;;;;;;4996955;28;20038;-66
2023/05/19 09:20:11;;;;;;;8.30;2.15;;;17.80;99.90;;;;;;4996704;28;20042;-66
2023/05/19 09:22:46;;;;;;;9.80;2.03;;;17.70;99.90;;;;;;4996930;28;20356;-66
2023/05/19 09:25:48;;;;;;;7.50;2.40;;;17.80;99.90;;;;;;4996568;28;20035;-66
2023/05/19 09:28:13;;;;;;;8.63;2.55;;;18.00;99.90;;;;;;4996584;28;20074;-66
2023/05/19 09:30:39;;;;;;;9.15;2.00;;;18.00;99.90;;;;;;4996896;28;20085;-66
2023/05/19 09:33:08;;;;;;;8.65;2.47;;;18.30;99.90;;;;;;4996586;28;20112;-66
2023/05/19 09:35:35;;;;;;;8.68;1.90;;;18.60;99.90;;;;;;4979771;28;20447;-66
2023/05/19 09:38:01;;;;;;;10.25;2.53;;;18.50;99.90;;;;;;4996617;28;20084;-66
2023/05/19 09:40:27;;;;;;;6.45;1.77;;;18.20;99.90;;;;;;4996740;28;20046;-66
2023/05/19 09:42:53;;;;;;;6.05;2.25;;;18.30;99.90;;;;;;4996521;28;20045;-66
2023/05/19 09:45:19;;;;;;;7.72;2.08;;;18.40;99.90;;;;;;4996583;28;20039;-66
2023/05/19 09:47:45;;;;;;;6.45;2.30;;;18.40;99.90;;;;;;4996833;28;20045;-66
2023/05/19 09:50:12;;;;;;;6.50;1.75;;;18.40;99.90;;;;;;4996492;28;20052;-66
2023/05/19 09:52:41;;;;;;;8.35;1.90;;;18.60;99.90;;;;;;4996353;28;20089;-67
2023/05/19 09:55:11;;;;;;;6.18;1.70;;;18.50;99.90;;;;;;4996117;28;20086;-65
2023/05/19 09:57:39;;;;;;;7.53;1.88;;;18.60;99.90;;;;;;4999144;28;20503;-69
2023/05/19 10:02:43;;;;;;;6.32;1.75;;;18.50;99.90;;;;;;5000262;28;20046;-67
2023/05/19 10:05:18;;;;;;;8.63;1.88;;;18.60;99.90;;;;;;5000271;28;20038;-67
2023/05/19 10:07:50;;;;;;;6.90;1.70;;;18.70;99.90;;;;;;4999894;28;20438;-68
2023/05/19 10:10:16;;;;;;;5.93;1.38;;;18.90;99.90;;;;;;4982479;28;20416;-70
2023/05/19 10:12:42;;;;;;;8.18;1.60;;;19.20;99.90;;;;;;4982796;28;20042;-67
2023/05/19 10:15:12;;;;;;;5.47;1.50;;;19.50;99.90;;;;;;4999923;28;20092;-68
2023/05/19 10:17:39;;;;;;;7.25;1.80;;;19.60;99.90;;;;;;4999898;28;20042;-66
2023/05/19 10:20:14;;;;;;;5.60;1.35;;;19.70;99.90;;;;;;4999638;28;20385;-68
2023/05/19 10:22:41;;;;;;;7.57;1.48;;;19.90;99.90;;;;;;4999907;28;20354;-68
2023/05/19 10:25:08;;;;;;;5.28;1.30;;;19.70;99.90;;;;;;4999366;28;20038;-67
2023/05/19 10:27:38;;;;;;;6.00;1.70;;;19.90;99.90;;;;;;4999763;28;20096;-68
2023/05/19 10:30:09;;;;;;;4.05;1.50;;;19.90;99.90;;;;;;4999474;28;20046;-67
2023/05/19 10:32:37;;;;;;;7.28;1.48;;;20.00;99.90;;;;;;4999617;28;20046;-68
2023/05/19 10:35:46;;;;;;;4.35;1.60;;;19.80;99.90;;;;;;4999359;28;20044;-67
2023/05/19 10:38:47;;;;;;;6.22;1.88;;;19.70;99.90;;;;;;4999612;28;20038;-67
2023/05/19 10:41:59;;;;;;;4.60;1.45;;;19.70;99.90;;;;;;4999551;28;20042;-69
2023/05/19 10:45:04;;;;;;;6.68;1.60;;;20.00;99.90;;;;;;4901518;29;20438;-73
2023/05/19 10:47:31;;;;;;;7.28;1.90;;;20.40;99.90;;;;;;4981735;28;20436;-70
2023/05/19 10:49:59;;;;;;;4.43;1.77;;;20.60;99.90;;;;;;4999359;28;20050;-70
2023/05/19 10:52:25;;;;;;;9.95;1.85;;;21.10;99.90;;;;;;4999378;28;20049;-71
2023/05/19 10:54:53;;;;;;;8.00;1.70;;;21.20;99.90;;;;;;4998831;28;20051;-72
2023/05/19 10:57:26;;;;;;;5.88;1.70;;;21.50;99.90;;;;;;4999287;28;20042;-72
2023/05/19 10:59:52;;;;;;;6.25;1.58;;;21.30;99.90;;;;;;4999083;28;20050;-72
2023/05/19 11:02:40;;;;;;;11.80;1.70;;;20.80;99.90;;;;;;4981981;28;20034;-72
2023/05/19 11:05:13;;;;;;;6.78;1.50;;;21.20;99.90;;;;;;4998889;28;20424;-72
2023/05/19 11:07:43;;;;;;;6.13;1.77;;;21.40;99.90;;;;;;4998996;28;20293;-72
2023/05/19 11:10:09;;;;;;;6.55;1.70;;;21.70;99.90;;;;;;4998751;28;20030;-72
2023/05/19 11:12:44;;;;;;;6.95;1.88;;;21.90;99.90;;;;;;4998792;28;20316;-72
2023/05/19 11:15:13;;;;;;;5.43;1.90;;;21.90;99.90;;;;;;4998963;28;20038;-72
2023/05/19 11:17:41;;;;;;;8.07;2.25;;;22.10;99.90;;;;;;4998812;28;20042;-72
2023/05/19 11:20:09;;;;;;;4.68;1.90;;;22.20;99.90;;;;;;4998676;28;20049;-72
2023/05/19 11:22:35;;;;;;;7.57;2.17;;;22.00;99.90;;;;;;4998493;28;20039;-72
2023/05/19 11:25:02;;;;;;;6.97;1.70;;;22.00;99.90;;;;;;4998210;28;20038;-72
2023/05/19 11:27:32;;;;;;;6.55;1.85;;;21.90;99.90;;;;;;4998681;28;20048;-72
2023/05/19 11:29:58;;;;;;;4.60;1.63;;;22.10;99.90;;;;;;4998183;28;20062;-72
2023/05/19 11:32:26;;;;;;;8.43;2.10;;;22.20;99.90;;;;;;4998357;28;20442;-72
2023/05/19 11:34:53;;;;;;;5.88;2.03;;;22.40;99.90;;;;;;4980980;28;20336;-72
2023/05/19 11:37:19;;;;;;;6.38;2.10;;;22.30;99.90;;;;;;4998231;28;20049;-72
2023/05/19 11:39:46;;;;;;;6.78;2.00;;;21.90;99.90;;;;;;4980920;28;20050;-72
2023/05/19 11:42:12;;;;;;;7.75;2.00;;;22.00;99.90;;;;;;4998380;28;20045;-72
2023/05/19 11:44:39;;;;;;;6.53;2.03;;;22.50;99.90;;;;;;4998090;28;20070;-72
2023/05/19 11:47:06;;;;;;;6.07;1.83;;;22.70;99.90;;;;;;4998251;28;20054;-72
2023/05/19 11:49:31;;;;;;;4.43;1.75;;;23.00;99.90;;;;;;4998299;28;20061;-72
2023/05/19 11:51:59;;;;;;;6.55;2.00;;;23.10;99.90;;;;;;4980931;28;20419;-73
2023/05/19 11:54:31;;;;;;;7.57;2.30;;;22.90;99.90;;;;;;4997829;28;20058;-72
2023/05/19 11:56:59;;;;;;;7.82;1.90;;;22.90;99.90;;;;;;4997393;28;20424;-72
2023/05/19 11:59:30;;;;;;;9.55;2.40;;;23.00;99.90;;;;;;4997909;28;20424;-72
2023/05/19 12:01:57;;;;;;;7.43;2.17;;;23.00;99.90;;;;;;4997790;28;20057;-72
2023/05/19 12:04:22;;;;;;;22.25;2.45;;;22.80;99.90;;;;;;4997761;28;20255;-72
2023/05/19 12:06:48;;;;;;;6.68;1.75;;;22.80;99.90;;;;;;4997602;28;20125;-72
2023/05/19 12:09:14;;;;;;;6.75;2.20;;;22.90;99.90;;;;;;4997836;28;20038;-72
2023/05/19 12:11:40;;;;;;;10.95;2.50;;;23.10;99.90;;;;;;4997710;28;20050;-72
2023/05/19 12:14:07;;;;;;;8.93;1.98;;;23.10;99.90;;;;;;4980566;28;20078;-72
2023/05/19 12:16:35;;;;;;;12.32;2.00;;;23.20;99.90;;;;;;4997789;28;20070;-72
2023/05/19 12:19:04;;;;;;;6.88;1.90;;;23.30;99.90;;;;;;4979847;28;20042;-72
2023/05/19 12:21:30;;;;;;;9.88;1.92;;;23.70;99.90;;;;;;4997638;28;20062;-72
2023/05/19 12:23:57;;;;;;;5.78;1.58;;;23.80;99.90;;;;;;4997394;28;20519;-72
2023/05/19 12:26:22;;;;;;;10.30;2.70;;;23.90;99.90;;;;;;4997108;28;20042;-72
2023/05/19 12:28:49;;;;;;;8.77;2.45;;;23.80;99.90;;;;;;4997659;28;20036;-72
2023/05/19 12:31:16;;;;;;;9.32;2.78;;;23.90;99.90;;;;;;4997384;28;20125;-71
2023/05/19 12:33:42;;;;;;;7.35;2.10;;;24.00;99.90;;;;;;4997343;28;20034;-72
2023/05/19 12:36:08;;;;;;;8.25;2.28;;;24.10;99.90;;;;;;4997268;28;20096;-72
2023/05/19 12:38:36;;;;;;;8.40;2.30;;;24.10;99.90;;;;;;4997521;28;20038;-72
2023/05/19 12:41:02;;;;;;;7.97;2.08;;;23.40;99.90;;;;;;4997089;28;20038;-71
2023/05/19 12:43:28;;;;;;;6.68;1.92;;;23.30;99.90;;;;;;4997281;28;20092;-71
2023/05/19 12:45:53;;;;;;;5.70;1.75;;;23.30;99.90;;;;;;4997340;28;20049;-72
2023/05/19 12:48:22;;;;;;;5.85;1.58;;;23.50;99.90;;;;;;4996664;28;20042;-75
2023/05/19 12:50:52;;;;;;;9.80;2.70;;;23.90;99.90;;;;;;4997245;28;20042;-73